createdAt,value
2019-05-07T00:00:57.897Z,6.34
2019-05-07T00:02:14.520Z,6.34
2019-05-07T00:03:17.945Z,6.36
2019-05-07T00:04:22.497Z,6.32
2019-05-07T00:05:26.048Z,6.31
2019-05-07T00:06:29.618Z,6.28
2019-05-07T00:07:33.050Z,6.28
2019-05-07T00:08:36.576Z,6.23
2019-05-07T00:09:40.075Z,6.23
2019-05-07T00:10:43.590Z,6.28
2019-05-07T00:11:47.014Z,6.33
2019-05-07T00:12:51.988Z,6.32
2019-05-07T00:13:55.541Z,6.33
2019-05-07T00:15:02.281Z,6.27
2019-05-07T00:16:04.288Z,6.27
2019-05-07T00:17:07.801Z,6.24
2019-05-07T00:18:12.732Z,6.26
2019-05-07T00:19:16.209Z,6.25
2019-05-07T00:20:19.653Z,6.18
2019-05-07T00:21:23.471Z,6.16
2019-05-07T00:22:26.970Z,6.19
2019-05-07T00:23:32.488Z,6.16
2019-05-07T00:24:35.670Z,6.12
2019-05-07T00:25:39.139Z,6.13
2019-05-07T00:26:43.185Z,6.12
2019-05-07T00:27:46.662Z,6.13
2019-05-07T00:28:52.506Z,6.14
2019-05-07T00:29:55.307Z,6.12
2019-05-07T00:30:58.765Z,6.11
2019-05-07T00:32:02.926Z,6.05
2019-05-07T00:33:06.634Z,5.98
2019-05-07T00:34:12.473Z,6.00
2019-05-07T00:35:19.957Z,6.05
2019-05-07T00:36:27.777Z,6.08
2019-05-07T00:37:44.677Z,6.06
2019-05-07T00:38:51.959Z,6.05
2019-05-07T00:40:08.585Z,6.00
2019-05-07T00:41:19.207Z,5.95
2019-05-07T00:42:27.386Z,5.92
2019-05-07T00:43:32.306Z,5.92
2019-05-07T00:44:37.336Z,5.92
2019-05-07T00:45:48.400Z,5.90
2019-05-07T00:46:52.559Z,5.86
2019-05-07T00:47:56.035Z,5.87
2019-05-07T00:48:59.533Z,5.94
2019-05-07T00:50:05.079Z,5.95
2019-05-07T00:51:25.034Z,5.94
2019-05-07T00:52:28.726Z,5.87
2019-05-07T00:53:32.907Z,5.91
2019-05-07T00:54:36.375Z,5.94
2019-05-07T00:55:42.151Z,5.94
2019-05-07T00:56:45.043Z,5.91
2019-05-07T00:57:48.478Z,5.89
2019-05-07T00:58:52.762Z,5.86
2019-05-07T00:59:56.317Z,5.88
2019-05-07T01:00:59.756Z,5.89
2019-05-07T01:02:03.821Z,5.88
2019-05-07T01:03:07.290Z,5.83
2019-05-07T01:04:12.020Z,5.82
2019-05-07T01:05:15.580Z,5.80
2019-05-07T01:06:19.081Z,5.83
2019-05-07T01:07:23.057Z,5.84
2019-05-07T01:08:26.507Z,5.81
2019-05-07T01:09:32.240Z,5.84
2019-05-07T01:10:35.158Z,5.80
2019-05-07T01:11:38.610Z,5.72
2019-05-07T01:12:42.441Z,5.56
2019-05-07T01:13:45.887Z,5.59
2019-05-07T01:14:49.321Z,5.60
2019-05-07T01:15:53.317Z,5.61
2019-05-07T01:16:56.882Z,5.58
2019-05-07T01:18:02.725Z,5.62
2019-05-07T01:19:05.812Z,5.67
2019-05-07T01:20:09.325Z,5.69
2019-05-07T01:21:13.299Z,5.71
2019-05-07T01:22:16.727Z,5.70
2019-05-07T01:23:22.657Z,5.67
2019-05-07T01:24:25.463Z,5.65
2019-05-07T01:25:28.959Z,5.57
2019-05-07T01:26:33.025Z,5.53
2019-05-07T01:27:36.669Z,5.55
2019-05-07T01:28:57.504Z,5.55
2019-05-07T01:30:02.594Z,5.60
2019-05-07T01:31:06.185Z,5.61
2019-05-07T01:32:12.677Z,5.62
2019-05-07T01:33:17.945Z,5.62
2019-05-07T01:34:32.297Z,5.60
2019-05-07T01:35:43.354Z,5.54
2019-05-07T01:36:46.786Z,5.54
2019-05-07T01:37:52.292Z,5.60
2019-05-07T01:38:55.387Z,5.66
2019-05-07T01:39:58.818Z,5.62
2019-05-07T01:41:02.913Z,5.56
2019-05-07T01:42:06.540Z,5.49
2019-05-07T01:43:11.949Z,5.42
2019-05-07T01:44:15.145Z,5.45
2019-05-07T01:45:18.651Z,5.46
2019-05-07T01:46:24.558Z,5.42
2019-05-07T01:47:27.321Z,5.40
2019-05-07T01:48:32.316Z,5.44
2019-05-07T01:49:35.861Z,5.43
2019-05-07T01:50:39.298Z,5.41
2019-05-07T01:51:42.793Z,5.39
2019-05-07T01:52:46.251Z,5.42
2019-05-07T01:53:49.694Z,5.47
2019-05-07T01:54:53.127Z,5.46
2019-05-07T01:55:56.639Z,5.37
2019-05-07T01:57:00.075Z,5.33
2019-05-07T01:58:04.843Z,5.33
2019-05-07T01:59:08.305Z,5.37
2019-05-07T02:00:13.029Z,5.40
2019-05-07T02:01:16.593Z,5.44
2019-05-07T02:02:22.863Z,5.44
2019-05-07T02:03:43.228Z,5.46
2019-05-07T02:04:53.779Z,5.49
2019-05-07T02:06:07.808Z,5.46
2019-05-07T02:07:12.880Z,5.46
2019-05-07T02:08:22.108Z,5.36
2019-05-07T02:09:39.436Z,5.28
2019-05-07T02:10:44.511Z,5.24
2019-05-07T02:12:02.451Z,5.21
2019-05-07T02:13:06.023Z,5.20
2019-05-07T02:14:09.595Z,5.22
2019-05-07T02:15:13.269Z,5.21
2019-05-07T02:16:16.701Z,5.24
2019-05-07T02:17:20.204Z,5.28
2019-05-07T02:18:23.634Z,5.28
2019-05-07T02:19:27.170Z,5.24
2019-05-07T02:20:32.222Z,5.23
2019-05-07T02:21:35.872Z,5.21
2019-05-07T02:22:39.302Z,5.18
2019-05-07T02:23:42.787Z,5.15
2019-05-07T02:24:46.268Z,5.15
2019-05-07T02:25:49.685Z,5.15
2019-05-07T02:26:53.116Z,5.18
2019-05-07T02:27:56.546Z,5.16
2019-05-07T02:29:00.007Z,5.16
2019-05-07T02:30:04.675Z,5.15
2019-05-07T02:31:08.243Z,5.08
2019-05-07T02:32:13.302Z,5.05
2019-05-07T02:33:16.954Z,5.08
2019-05-07T02:34:23.352Z,5.06
2019-05-07T02:35:25.555Z,5.05
2019-05-07T02:36:28.991Z,5.08
2019-05-07T02:37:46.903Z,5.08
2019-05-07T02:38:56.577Z,5.05
2019-05-07T02:40:04.556Z,5.01
2019-05-07T02:41:18.741Z,5.05
2019-05-07T02:42:23.893Z,4.97
2019-05-07T02:43:27.481Z,4.96
2019-05-07T02:44:32.689Z,5.03
2019-05-07T02:45:55.634Z,5.04
2019-05-07T02:47:15.703Z,4.98
2019-05-07T02:48:23.548Z,4.84
2019-05-07T02:49:32.676Z,4.78
2019-05-07T02:50:53.797Z,4.80
2019-05-07T02:52:13.477Z,4.76
2019-05-07T02:53:18.292Z,4.78
2019-05-07T02:54:29.101Z,4.76
2019-05-07T02:55:43.611Z,4.78
2019-05-07T02:56:47.142Z,4.79
2019-05-07T02:57:53.645Z,4.79
2019-05-07T02:58:55.857Z,4.75
2019-05-07T02:59:59.356Z,4.79
2019-05-07T03:01:04.824Z,4.86
2019-05-07T03:02:08.133Z,4.81
2019-05-07T03:03:13.743Z,4.81
2019-05-07T03:04:16.943Z,4.78
2019-05-07T03:05:23.077Z,4.74
2019-05-07T03:06:25.751Z,4.72
2019-05-07T03:07:29.242Z,4.76
2019-05-07T03:08:33.315Z,4.82
2019-05-07T03:09:36.878Z,4.86
2019-05-07T03:10:43.139Z,4.89
2019-05-07T03:11:45.699Z,4.90
2019-05-07T03:12:49.305Z,4.93
2019-05-07T03:13:53.750Z,4.94
2019-05-07T03:14:57.511Z,4.98
2019-05-07T03:16:03.729Z,5.01
2019-05-07T03:17:06.398Z,4.97
2019-05-07T03:18:09.811Z,4.98
2019-05-07T03:19:13.653Z,5.02
2019-05-07T03:20:18.795Z,5.05
2019-05-07T03:21:23.495Z,5.08
2019-05-07T03:22:27.291Z,5.06
2019-05-07T03:23:34.057Z,5.06
2019-05-07T03:24:43.464Z,5.08
2019-05-07T03:25:54.238Z,5.06
2019-05-07T03:26:57.008Z,5.04
2019-05-07T03:28:00.459Z,5.10
2019-05-07T03:29:05.603Z,5.11
2019-05-07T03:30:26.778Z,5.11
2019-05-07T03:31:46.385Z,5.14
2019-05-07T03:32:56.758Z,5.12
2019-05-07T03:34:06.569Z,5.08
2019-05-07T03:35:16.274Z,5.02
2019-05-07T03:36:19.295Z,5.03
2019-05-07T03:37:24.430Z,5.03
2019-05-07T03:38:27.900Z,5.01
2019-05-07T03:39:33.845Z,4.91
2019-05-07T03:40:37.100Z,4.80
2019-05-07T03:41:43.245Z,4.71
2019-05-07T03:42:45.676Z,4.55
2019-05-07T03:43:49.204Z,4.51
2019-05-07T03:44:56.969Z,4.50
2019-05-07T03:46:03.604Z,4.57
2019-05-07T03:47:17.617Z,4.63
2019-05-07T03:48:23.860Z,4.58
2019-05-07T03:49:29.310Z,4.48
2019-05-07T03:50:33.767Z,4.54
2019-05-07T03:51:37.294Z,4.58
2019-05-07T03:52:42.872Z,4.61
2019-05-07T03:53:46.001Z,4.58
2019-05-07T03:54:49.412Z,4.60
2019-05-07T03:55:53.683Z,4.55
2019-05-07T03:57:02.430Z,4.56
2019-05-07T03:58:03.291Z,4.52
2019-05-07T03:59:06.870Z,4.51
2019-05-07T04:00:12.945Z,4.42
2019-05-07T04:01:16.488Z,4.41
2019-05-07T04:02:23.424Z,4.39
2019-05-07T04:03:25.202Z,4.37
2019-05-07T04:04:28.668Z,4.41
2019-05-07T04:05:34.191Z,4.48
2019-05-07T04:06:37.245Z,4.51
2019-05-07T04:07:43.063Z,4.53
2019-05-07T04:08:45.846Z,4.52
2019-05-07T04:09:53.492Z,4.42
2019-05-07T04:10:57.052Z,4.33
2019-05-07T04:12:03.573Z,4.33
2019-05-07T04:13:05.647Z,4.37
2019-05-07T04:14:09.093Z,4.37
2019-05-07T04:15:14.586Z,4.33
2019-05-07T04:16:17.914Z,4.25
2019-05-07T04:17:25.771Z,4.14
2019-05-07T04:18:26.569Z,4.07
2019-05-07T04:19:32.641Z,4.04
2019-05-07T04:20:35.171Z,3.97
2019-05-07T04:21:38.605Z,3.93
2019-05-07T04:22:43.117Z,3.98
2019-05-07T04:23:48.520Z,4.02
2019-05-07T04:24:56.595Z,4.03
2019-05-07T04:26:17.643Z,4.00
2019-05-07T04:27:25.101Z,4.02
2019-05-07T04:28:33.041Z,4.02
2019-05-07T04:29:35.330Z,3.98
2019-05-07T04:30:38.927Z,4.01
2019-05-07T04:31:43.621Z,4.05
2019-05-07T04:32:53.004Z,4.04
2019-05-07T04:33:58.200Z,4.11
2019-05-07T04:35:12.659Z,4.15
2019-05-07T04:36:17.796Z,4.11
2019-05-07T04:37:23.918Z,4.06
2019-05-07T04:38:26.371Z,4.05
2019-05-07T04:39:29.834Z,4.08
2019-05-07T04:40:33.973Z,4.11
2019-05-07T04:41:37.711Z,4.11
2019-05-07T04:42:42.792Z,4.09
2019-05-07T04:43:46.346Z,4.09
2019-05-07T04:44:49.814Z,4.15
2019-05-07T04:45:53.789Z,4.21
2019-05-07T04:46:57.410Z,4.25
2019-05-07T04:48:03.060Z,4.31
2019-05-07T04:49:06.068Z,4.31
2019-05-07T04:50:13.978Z,4.33
2019-05-07T04:51:18.581Z,4.37
2019-05-07T04:52:29.739Z,4.37
2019-05-07T04:53:33.179Z,4.36
2019-05-07T04:54:36.742Z,4.27
2019-05-07T04:55:42.839Z,4.31
2019-05-07T04:56:45.330Z,4.30
2019-05-07T04:57:48.767Z,4.31
2019-05-07T04:58:53.079Z,4.37
2019-05-07T04:59:57.769Z,4.40
2019-05-07T05:01:03.252Z,4.40
2019-05-07T05:02:07.979Z,4.46
2019-05-07T05:03:23.728Z,4.51
2019-05-07T05:04:31.446Z,4.54
2019-05-07T05:05:33.116Z,4.55
2019-05-07T05:06:36.644Z,4.56
2019-05-07T05:07:42.858Z,4.65
2019-05-07T05:08:45.375Z,4.71
2019-05-07T05:09:52.998Z,4.72
2019-05-07T05:10:54.200Z,4.77
2019-05-07T05:11:57.597Z,4.80
2019-05-07T05:13:03.203Z,4.84
2019-05-07T05:14:07.836Z,4.82
2019-05-07T05:15:12.614Z,4.88
2019-05-07T05:16:26.101Z,4.87
2019-05-07T05:17:29.605Z,4.92
2019-05-07T05:18:34.980Z,4.91
2019-05-07T05:19:38.444Z,4.96
2019-05-07T05:20:43.681Z,4.92
2019-05-07T05:21:48.755Z,4.91
2019-05-07T05:23:11.980Z,4.93
2019-05-07T05:24:16.534Z,4.99
2019-05-07T05:25:22.759Z,5.06
2019-05-07T05:26:26.405Z,5.07
2019-05-07T05:27:30.721Z,5.10
2019-05-07T05:28:35.058Z,5.10
2019-05-07T05:29:38.765Z,5.09
2019-05-07T05:30:52.821Z,5.11
2019-05-07T05:31:56.383Z,5.14
2019-05-07T05:33:02.155Z,5.18
2019-05-07T05:34:05.209Z,5.22
2019-05-07T05:35:09.486Z,5.26
2019-05-07T05:36:13.018Z,5.30
2019-05-07T05:37:16.465Z,5.35
2019-05-07T05:38:21.966Z,5.41
2019-05-07T05:39:25.039Z,5.40
2019-05-07T05:40:28.486Z,5.43
2019-05-07T05:41:34.022Z,5.47
2019-05-07T05:42:48.974Z,5.49
2019-05-07T05:43:56.741Z,5.50
2019-05-07T05:45:02.081Z,5.55
2019-05-07T05:46:07.413Z,5.62
2019-05-07T05:47:11.928Z,5.63
2019-05-07T05:48:15.617Z,5.67
2019-05-07T05:49:19.045Z,5.70
2019-05-07T05:50:22.482Z,5.75
2019-05-07T05:51:27.562Z,5.77
2019-05-07T05:52:42.498Z,5.81
2019-05-07T05:53:56.072Z,5.80
2019-05-07T05:55:02.523Z,5.82
2019-05-07T05:56:23.343Z,5.85
2019-05-07T05:57:37.281Z,5.88
2019-05-07T05:58:48.276Z,5.92
2019-05-07T06:00:05.249Z,5.96
2019-05-07T06:01:10.317Z,5.98
2019-05-07T06:02:32.394Z,6.02
2019-05-07T06:03:53.556Z,6.10
2019-05-07T06:04:58.667Z,6.16
2019-05-07T06:06:09.430Z,6.18
2019-05-07T06:07:16.959Z,6.22
2019-05-07T06:08:24.736Z,6.25
2019-05-07T06:09:29.805Z,6.28
2019-05-07T06:10:42.465Z,6.32
2019-05-07T06:12:02.926Z,6.38
2019-05-07T06:13:13.891Z,6.44
2019-05-07T06:14:22.182Z,6.47
2019-05-07T06:15:33.552Z,6.47
2019-05-07T06:16:38.617Z,6.50
2019-05-07T06:17:51.849Z,6.54
2019-05-07T06:18:59.154Z,6.60
2019-05-07T06:20:22.736Z,6.62
2019-05-07T06:21:44.069Z,6.62
2019-05-07T06:23:05.518Z,6.66
2019-05-07T06:24:11.894Z,6.68
2019-05-07T06:25:19.917Z,6.70
2019-05-07T06:26:23.884Z,6.72
2019-05-07T06:27:27.387Z,6.71
2019-05-07T06:28:32.946Z,6.72
2019-05-07T06:29:36.050Z,6.79
2019-05-07T06:30:41.680Z,6.84
2019-05-07T06:31:46.420Z,6.84
2019-05-07T06:32:52.134Z,6.88
2019-05-07T06:33:55.084Z,6.93
2019-05-07T06:34:58.607Z,6.98
2019-05-07T06:36:02.852Z,7.00
2019-05-07T06:37:06.451Z,7.03
2019-05-07T06:38:12.288Z,7.06
2019-05-07T06:39:19.489Z,7.07
2019-05-07T06:40:29.149Z,7.10
2019-05-07T06:41:49.340Z,7.14
2019-05-07T06:43:03.451Z,7.17
2019-05-07T06:44:08.529Z,7.26
2019-05-07T06:45:13.937Z,7.30
2019-05-07T06:46:17.390Z,7.30
2019-05-07T06:47:22.194Z,7.34
2019-05-07T06:48:37.914Z,7.33
2019-05-07T06:49:32.449Z,7.32
2019-05-07T06:50:36.033Z,7.27
2019-05-07T06:51:41.865Z,7.28
2019-05-07T06:52:44.641Z,7.30
2019-05-07T06:53:48.222Z,7.24
2019-05-07T06:54:52.335Z,7.21
2019-05-07T06:55:56.530Z,7.22
2019-05-07T06:57:02.049Z,7.24
2019-05-07T06:58:06.052Z,7.23
2019-05-07T06:59:12.956Z,7.27
2019-05-07T07:00:22.442Z,7.33
2019-05-07T07:01:27.089Z,7.38
2019-05-07T07:02:41.934Z,7.44
2019-05-07T07:03:58.949Z,7.50
2019-05-07T07:05:04.161Z,7.51
2019-05-07T07:06:15.507Z,7.53
2019-05-07T07:07:27.276Z,7.53
2019-05-07T07:08:27.499Z,7.62
2019-05-07T07:09:47.461Z,7.63
2019-05-07T07:11:08.540Z,7.65
2019-05-07T07:12:13.751Z,7.74
2019-05-07T07:13:17.411Z,7.76
2019-05-07T07:14:22.765Z,7.79
2019-05-07T07:15:26.316Z,7.85
2019-05-07T07:16:29.836Z,7.91
2019-05-07T07:17:33.342Z,7.95
2019-05-07T07:18:48.669Z,7.97
2019-05-07T07:19:42.778Z,7.99
2019-05-07T07:20:48.639Z,8.00
2019-05-07T07:21:52.759Z,8.02
2019-05-07T07:22:56.290Z,8.07
2019-05-07T07:23:59.794Z,8.10
2019-05-07T07:25:06.474Z,8.15
2019-05-07T07:26:09.029Z,8.23
2019-05-07T07:27:13.303Z,8.23
2019-05-07T07:28:16.781Z,8.25
2019-05-07T07:29:22.082Z,8.36
2019-05-07T07:30:43.288Z,8.36
2019-05-07T07:31:52.757Z,8.35
2019-05-07T07:32:58.007Z,8.26
2019-05-07T07:34:03.132Z,8.25
2019-05-07T07:35:09.125Z,8.33
2019-05-07T07:36:12.651Z,8.42
2019-05-07T07:37:23.312Z,8.46
2019-05-07T07:38:33.032Z,8.46
2019-05-07T07:39:36.590Z,8.47
2019-05-07T07:40:44.766Z,8.48
2019-05-07T07:41:52.884Z,8.49
2019-05-07T07:42:56.453Z,8.48
2019-05-07T07:44:01.918Z,8.47
2019-05-07T07:45:16.532Z,8.47
2019-05-07T07:46:22.221Z,8.47
2019-05-07T07:47:25.363Z,8.49
2019-05-07T07:48:28.801Z,8.57
2019-05-07T07:49:32.962Z,8.57
2019-05-07T07:50:36.730Z,8.59
2019-05-07T07:51:44.455Z,8.57
2019-05-07T07:52:45.383Z,8.54
2019-05-07T07:53:48.879Z,8.54
2019-05-07T07:54:52.950Z,8.59
2019-05-07T07:56:13.902Z,8.63
2019-05-07T07:57:18.969Z,8.61
2019-05-07T07:58:24.038Z,8.61
2019-05-07T07:59:42.139Z,8.60
2019-05-07T08:00:52.311Z,8.60
2019-05-07T08:01:57.169Z,8.58
2019-05-07T08:03:02.373Z,8.60
2019-05-07T08:04:05.843Z,8.69
2019-05-07T08:05:09.606Z,8.69
2019-05-07T08:06:13.132Z,8.71
2019-05-07T08:07:16.658Z,8.68
2019-05-07T08:08:21.929Z,8.67
2019-05-07T08:09:25.873Z,8.63
2019-05-07T08:10:29.332Z,8.66
2019-05-07T08:11:32.855Z,8.70
2019-05-07T08:12:36.454Z,8.76
2019-05-07T08:13:42.363Z,8.83
2019-05-07T08:14:45.554Z,8.98
2019-05-07T08:15:49.130Z,8.98
2019-05-07T08:16:52.904Z,9.04
2019-05-07T08:17:56.425Z,9.11
2019-05-07T08:18:59.851Z,9.10
2019-05-07T08:20:05.028Z,9.10
2019-05-07T08:21:08.593Z,9.06
2019-05-07T08:22:12.371Z,9.16
2019-05-07T08:23:15.813Z,9.22
2019-05-07T08:24:19.231Z,9.23
2019-05-07T08:25:24.302Z,9.24
2019-05-07T08:26:27.737Z,9.23
2019-05-07T08:27:32.522Z,9.23
2019-05-07T08:28:35.962Z,9.22
2019-05-07T08:29:39.399Z,9.28
2019-05-07T08:30:44.534Z,9.27
2019-05-07T08:31:52.447Z,9.34
2019-05-07T08:33:03.313Z,9.42
2019-05-07T08:34:17.539Z,9.49
2019-05-07T08:35:28.207Z,9.52
2019-05-07T08:36:33.155Z,9.57
2019-05-07T08:37:36.618Z,9.59
2019-05-07T08:38:52.627Z,9.55
2019-05-07T08:39:55.574Z,9.58
2019-05-07T08:40:59.010Z,9.65
2019-05-07T08:42:02.519Z,9.71
2019-05-07T08:43:06.390Z,9.75
2019-05-07T08:44:17.469Z,9.86
2019-05-07T08:45:38.542Z,9.89
2019-05-07T08:46:43.761Z,9.99
2019-05-07T08:47:48.909Z,10.12
2019-05-07T08:48:52.894Z,10.24
2019-05-07T08:49:56.860Z,10.32
2019-05-07T08:51:02.431Z,10.39
2019-05-07T08:52:05.604Z,10.46
2019-05-07T08:53:09.058Z,10.45
2019-05-07T08:54:12.582Z,10.47
2019-05-07T08:55:16.157Z,10.48
2019-05-07T08:56:19.677Z,10.41
2019-05-07T08:57:23.180Z,10.34
2019-05-07T08:58:26.766Z,10.29
2019-05-07T08:59:31.879Z,10.33
2019-05-07T09:00:35.444Z,10.38
2019-05-07T09:01:43.064Z,10.50
2019-05-07T09:02:45.662Z,10.55
2019-05-07T09:03:49.100Z,10.65
2019-05-07T09:04:52.732Z,10.72
2019-05-07T09:05:56.169Z,10.73
2019-05-07T09:06:59.741Z,10.77
2019-05-07T09:08:03.242Z,10.81
2019-05-07T09:09:13.741Z,10.82
2019-05-07T09:10:17.256Z,10.82
2019-05-07T09:11:22.941Z,10.87
2019-05-07T09:12:25.914Z,10.93
2019-05-07T09:13:29.344Z,10.95
2019-05-07T09:14:32.863Z,10.91
2019-05-07T09:15:36.483Z,10.98
2019-05-07T09:16:42.406Z,10.98
2019-05-07T09:17:45.086Z,10.93
2019-05-07T09:18:48.581Z,10.91
2019-05-07T09:19:54.938Z,11.01
2019-05-07T09:20:57.640Z,11.08
2019-05-07T09:22:02.137Z,11.16
2019-05-07T09:23:05.797Z,11.17
2019-05-07T09:24:09.379Z,11.23
2019-05-07T09:25:13.769Z,11.36
2019-05-07T09:26:18.919Z,11.44
2019-05-07T09:27:27.295Z,11.39
2019-05-07T09:28:32.674Z,11.40
2019-05-07T09:29:55.430Z,11.34
2019-05-07T09:31:03.188Z,11.35
2019-05-07T09:32:13.911Z,11.41
2019-05-07T09:33:18.983Z,11.37
2019-05-07T09:34:26.648Z,11.33
2019-05-07T09:35:32.138Z,11.27
2019-05-07T09:36:37.206Z,11.23
2019-05-07T09:37:42.097Z,11.26
2019-05-07T09:38:56.147Z,11.38
2019-05-07T09:39:53.767Z,11.48
2019-05-07T09:40:57.299Z,11.48
2019-05-07T09:42:02.197Z,11.55
2019-05-07T09:43:05.726Z,11.54
2019-05-07T09:44:09.227Z,11.53
2019-05-07T09:45:13.143Z,11.53
2019-05-07T09:46:16.595Z,11.51
2019-05-07T09:47:21.969Z,11.55
2019-05-07T09:48:25.489Z,11.64
2019-05-07T09:49:28.922Z,11.73
2019-05-07T09:50:32.738Z,11.75
2019-05-07T09:51:36.200Z,11.67
2019-05-07T09:52:39.716Z,11.69
2019-05-07T09:53:43.154Z,11.70
2019-05-07T09:54:46.590Z,11.75
2019-05-07T09:55:51.638Z,11.79
2019-05-07T09:56:55.205Z,11.79
2019-05-07T09:57:58.778Z,11.74
2019-05-07T09:59:02.353Z,11.67
2019-05-07T10:00:08.088Z,11.69
2019-05-07T10:01:12.570Z,11.69
2019-05-07T10:02:16.254Z,11.61
2019-05-07T10:03:19.763Z,11.63
2019-05-07T10:04:23.330Z,11.59
2019-05-07T10:05:26.831Z,11.59
2019-05-07T10:06:32.082Z,11.52
2019-05-07T10:07:35.703Z,11.47
2019-05-07T10:08:39.372Z,11.52
2019-05-07T10:09:42.944Z,11.59
2019-05-07T10:10:50.410Z,11.58
2019-05-07T10:11:57.083Z,11.51
2019-05-07T10:13:05.148Z,11.52
2019-05-07T10:14:12.474Z,11.64
2019-05-07T10:15:16.074Z,11.78
2019-05-07T10:16:21.236Z,11.93
2019-05-07T10:17:42.675Z,11.99
2019-05-07T10:18:46.279Z,12.10
2019-05-07T10:19:52.214Z,12.21
2019-05-07T10:20:55.489Z,12.23
2019-05-07T10:21:59.065Z,12.19
2019-05-07T10:23:02.640Z,12.16
2019-05-07T10:24:06.218Z,12.11
2019-05-07T10:25:12.020Z,11.99
2019-05-07T10:26:15.508Z,11.88
2019-05-07T10:27:19.412Z,11.72
2019-05-07T10:28:23.595Z,11.67
2019-05-07T10:29:27.090Z,11.61
2019-05-07T10:30:32.131Z,11.67
2019-05-07T10:31:35.879Z,11.71
2019-05-07T10:32:39.448Z,11.80
2019-05-07T10:33:42.952Z,11.91
2019-05-07T10:34:46.472Z,12.02
2019-05-07T10:35:50.055Z,12.12
2019-05-07T10:36:53.653Z,12.17
2019-05-07T10:37:57.235Z,12.22
2019-05-07T10:39:02.532Z,12.25
2019-05-07T10:40:12.277Z,12.32
2019-05-07T10:41:15.959Z,12.41
2019-05-07T10:42:19.490Z,12.55
2019-05-07T10:43:23.000Z,12.52
2019-05-07T10:44:28.206Z,12.51
2019-05-07T10:45:39.298Z,12.43
2019-05-07T10:46:44.528Z,12.48
2019-05-07T10:47:52.476Z,12.58
2019-05-07T10:49:01.962Z,12.69
2019-05-07T10:50:17.398Z,12.54
2019-05-07T10:51:21.802Z,12.61
2019-05-07T10:52:25.449Z,12.76
2019-05-07T10:53:29.070Z,12.90
2019-05-07T10:54:32.733Z,13.07
2019-05-07T10:55:36.301Z,13.11
2019-05-07T10:56:41.795Z,13.22
2019-05-07T10:57:44.972Z,13.26
2019-05-07T10:58:48.555Z,13.29
2019-05-07T10:59:52.339Z,13.27
2019-05-07T11:00:56.457Z,13.27
2019-05-07T11:02:02.432Z,13.19
2019-05-07T11:03:06.073Z,13.14
2019-05-07T11:04:09.606Z,13.23
2019-05-07T11:05:14.582Z,13.31
2019-05-07T11:06:18.093Z,13.34
2019-05-07T11:07:22.261Z,13.49
2019-05-07T11:08:26.000Z,13.69
2019-05-07T11:09:29.479Z,13.90
2019-05-07T11:10:32.986Z,14.03
2019-05-07T11:11:36.555Z,14.01
2019-05-07T11:12:42.279Z,14.01
2019-05-07T11:13:45.399Z,13.95
2019-05-07T11:14:48.846Z,13.90
2019-05-07T11:16:02.919Z,13.92
2019-05-07T11:17:11.860Z,13.91
2019-05-07T11:18:17.088Z,13.99
2019-05-07T11:19:22.107Z,13.87
2019-05-07T11:20:25.861Z,13.79
2019-05-07T11:21:33.340Z,13.84
2019-05-07T11:22:37.086Z,13.82
2019-05-07T11:23:41.889Z,13.77
2019-05-07T11:24:45.371Z,13.80
2019-05-07T11:25:48.876Z,13.84
2019-05-07T11:26:53.124Z,13.98
2019-05-07T11:27:56.733Z,14.12
2019-05-07T11:29:02.238Z,14.17
2019-05-07T11:30:09.478Z,14.21
2019-05-07T11:31:13.008Z,14.09
2019-05-07T11:32:16.516Z,14.14
2019-05-07T11:33:21.893Z,14.13
2019-05-07T11:34:25.370Z,14.08
2019-05-07T11:35:28.971Z,14.05
2019-05-07T11:36:34.390Z,14.13
2019-05-07T11:37:37.722Z,14.24
2019-05-07T11:38:41.898Z,14.16
2019-05-07T11:39:46.544Z,14.19
2019-05-07T11:40:51.777Z,14.34
2019-05-07T11:42:15.081Z,14.49
2019-05-07T11:43:36.103Z,14.61
2019-05-07T11:44:39.537Z,14.81
2019-05-07T11:45:47.725Z,14.70
2019-05-07T11:47:12.334Z,14.62
2019-05-07T11:48:16.717Z,14.48
2019-05-07T11:49:22.727Z,14.20
2019-05-07T11:50:43.501Z,14.14
2019-05-07T11:51:48.644Z,14.20
2019-05-07T11:52:53.719Z,14.07
2019-05-07T11:54:13.334Z,13.94
2019-05-07T11:55:16.897Z,14.14
2019-05-07T11:56:21.976Z,14.15
2019-05-07T11:57:25.450Z,14.30
2019-05-07T11:58:28.890Z,14.47
2019-05-07T11:59:32.669Z,14.51
2019-05-07T12:00:42.602Z,14.66
2019-05-07T12:01:48.188Z,14.70
2019-05-07T12:02:52.011Z,14.79
2019-05-07T12:03:55.416Z,14.81
2019-05-07T12:04:58.851Z,15.03
2019-05-07T12:06:02.306Z,15.22
2019-05-07T12:07:05.806Z,15.09
2019-05-07T12:08:09.305Z,14.87
2019-05-07T12:09:12.867Z,14.72
2019-05-07T12:10:16.451Z,14.74
2019-05-07T12:11:21.806Z,14.76
2019-05-07T12:12:25.080Z,14.91
2019-05-07T12:13:28.575Z,15.09
2019-05-07T12:14:34.828Z,15.23
2019-05-07T12:15:37.994Z,15.19
2019-05-07T12:16:42.621Z,14.93
2019-05-07T12:17:46.355Z,14.78
2019-05-07T12:18:49.879Z,14.76
2019-05-07T12:19:56.152Z,14.96
2019-05-07T12:20:59.688Z,15.19
2019-05-07T12:22:04.152Z,15.49
2019-05-07T12:23:07.651Z,15.63
2019-05-07T12:24:12.837Z,15.85
2019-05-07T12:25:18.695Z,16.00
2019-05-07T12:26:22.336Z,16.25
2019-05-07T12:27:25.751Z,16.25
2019-05-07T12:28:29.274Z,16.34
2019-05-07T12:29:32.707Z,16.21
2019-05-07T12:30:37.847Z,16.25
2019-05-07T12:31:57.776Z,16.59
2019-05-07T12:33:18.776Z,16.71
2019-05-07T12:34:23.848Z,16.76
2019-05-07T12:35:27.453Z,17.15
2019-05-07T12:36:32.056Z,17.29
2019-05-07T12:37:35.606Z,17.57
2019-05-07T12:38:39.075Z,17.67
2019-05-07T12:39:42.509Z,17.94
2019-05-07T12:40:45.944Z,17.88
2019-05-07T12:41:49.519Z,17.82
2019-05-07T12:42:53.019Z,18.03
2019-05-07T12:43:56.843Z,18.12
2019-05-07T12:45:02.337Z,18.11
2019-05-07T12:46:05.717Z,18.23
2019-05-07T12:47:09.157Z,18.83
2019-05-07T12:48:14.285Z,19.00
2019-05-07T12:49:17.810Z,18.83
2019-05-07T12:50:21.959Z,19.11
2019-05-07T12:51:36.378Z,19.57
2019-05-07T12:52:38.036Z,19.36
2019-05-07T12:53:43.139Z,19.05
2019-05-07T12:54:52.440Z,19.50
2019-05-07T12:55:57.705Z,19.66
2019-05-07T12:57:02.487Z,19.27
2019-05-07T12:58:06.204Z,18.99
2019-05-07T12:59:09.804Z,19.25
2019-05-07T13:00:32.290Z,19.47
2019-05-07T13:01:42.202Z,19.64
2019-05-07T13:02:47.124Z,19.76
2019-05-07T13:03:55.101Z,19.61
2019-05-07T13:04:58.830Z,19.28
2019-05-07T13:06:02.626Z,19.06
2019-05-07T13:07:13.559Z,18.93
2019-05-07T13:08:17.076Z,19.00
2019-05-07T13:09:21.951Z,19.22
2019-05-07T13:10:25.599Z,19.08
2019-05-07T13:11:29.023Z,18.58
2019-05-07T13:12:32.521Z,18.30
2019-05-07T13:13:36.024Z,18.28
2019-05-07T13:14:39.538Z,18.35
2019-05-07T13:15:43.426Z,18.31
2019-05-07T13:16:47.025Z,18.09
2019-05-07T13:17:52.047Z,18.12
2019-05-07T13:18:55.556Z,18.09
2019-05-07T13:19:59.162Z,18.28
2019-05-07T13:21:02.685Z,18.48
2019-05-07T13:22:06.282Z,18.72
2019-05-07T13:23:11.824Z,18.87
2019-05-07T13:24:15.093Z,18.69
2019-05-07T13:25:18.830Z,18.85
2019-05-07T13:26:24.429Z,18.88
2019-05-07T13:27:27.492Z,19.08
2019-05-07T13:28:31.075Z,18.82
2019-05-07T13:29:34.670Z,18.64
2019-05-07T13:30:38.109Z,18.66
2019-05-07T13:31:42.580Z,19.12
2019-05-07T13:32:48.235Z,19.40
2019-05-07T13:33:53.159Z,19.57
2019-05-07T13:34:57.036Z,19.71
2019-05-07T13:36:02.295Z,19.47
2019-05-07T13:37:10.199Z,19.55
2019-05-07T13:38:15.644Z,19.70
2019-05-07T13:39:27.064Z,19.87
2019-05-07T13:40:38.137Z,20.19
2019-05-07T13:41:43.357Z,20.29
2019-05-07T13:42:49.368Z,20.22
2019-05-07T13:44:12.368Z,20.44
2019-05-07T13:45:26.687Z,20.81
2019-05-07T13:46:31.903Z,20.97
2019-05-07T13:47:36.518Z,21.04
2019-05-07T13:48:45.800Z,21.04
2019-05-07T13:49:53.619Z,20.89
2019-05-07T13:50:55.738Z,20.54
2019-05-07T13:52:03.587Z,20.58
2019-05-07T13:53:04.636Z,20.90
2019-05-07T13:54:08.211Z,21.02
2019-05-07T13:55:12.872Z,20.90
2019-05-07T13:56:16.487Z,20.62
2019-05-07T13:57:20.167Z,20.51
2019-05-07T13:58:23.764Z,20.51
2019-05-07T13:59:27.273Z,20.35
2019-05-07T14:00:35.348Z,20.26
2019-05-07T14:01:56.840Z,20.24
2019-05-07T14:03:00.374Z,20.21
2019-05-07T14:04:04.241Z,20.12
2019-05-07T14:05:08.775Z,19.88
2019-05-07T14:06:16.498Z,19.78
2019-05-07T14:07:19.308Z,19.79
2019-05-07T14:08:23.624Z,19.70
2019-05-07T14:09:27.135Z,19.67
2019-05-07T14:10:32.084Z,19.92
2019-05-07T14:11:35.912Z,19.83
2019-05-07T14:12:39.429Z,19.80
2019-05-07T14:13:43.645Z,19.77
2019-05-07T14:14:47.235Z,19.62
2019-05-07T14:16:06.837Z,19.52
2019-05-07T14:17:12.504Z,19.83
2019-05-07T14:18:15.639Z,20.10
2019-05-07T14:19:19.233Z,20.14
2019-05-07T14:20:22.813Z,20.11
2019-05-07T14:21:26.250Z,20.40
2019-05-07T14:22:31.687Z,20.45
2019-05-07T14:23:35.117Z,19.99
2019-05-07T14:24:38.666Z,19.31
2019-05-07T14:25:42.182Z,19.09
2019-05-07T14:26:45.762Z,18.76